sensor_id;sensor_type;location;lat;lon;timestamp;temperature;humidity
69628;DHT22;56850;51.984;5.088;2024-02-16T00:02:03;17.20;66.10
69628;DHT22;56850;51.984;5.088;2024-02-16T00:04:30;17.20;66.10
69628;DHT22;56850;51.984;5.088;2024-02-16T00:06:58;17.20;66.10
69628;DHT22;56850;51.984;5.088;2024-02-16T00:09:25;17.20;66.10
69628;DHT22;56850;51.984;5.088;2024-02-16T00:11:52;17.20;66.10
69628;DHT22;56850;51.984;5.088;2024-02-16T00:14:19;17.20;66.10
69628;DHT22;56850;51.984;5.088;2024-02-16T00:16:47;17.20;66.10
69628;DHT22;56850;51.984;5.088;2024-02-16T00:19:14;17.20;66.10
69628;DHT22;56850;51.984;5.088;2024-02-16T00:21:41;17.10;66.10
69628;DHT22;56850;51.984;5.088;2024-02-16T00:24:09;17.10;66.10
69628;DHT22;56850;51.984;5.088;2024-02-16T00:26:39;17.10;66.10
69628;DHT22;56850;51.984;5.088;2024-02-16T00:29:09;17.10;66.10
69628;DHT22;56850;51.984;5.088;2024-02-16T00:31:37;17.10;66.20
69628;DHT22;56850;51.984;5.088;2024-02-16T00:34:04;17.10;66.10
69628;DHT22;56850;51.984;5.088;2024-02-16T00:36:31;17.10;66.10
69628;DHT22;56850;51.984;5.088;2024-02-16T00:39:01;17.10;66.20
69628;DHT22;56850;51.984;5.088;2024-02-16T00:41:28;17.10;66.20
69628;DHT22;56850;51.984;5.088;2024-02-16T00:43:55;17.10;66.10
69628;DHT22;56850;51.984;5.088;2024-02-16T00:46:23;17.10;66.10
69628;DHT22;56850;51.984;5.088;2024-02-16T00:48:51;17.10;66.30
69628;DHT22;56850;51.984;5.088;2024-02-16T00:51:19;17.10;66.20
69628;DHT22;56850;51.984;5.088;2024-02-16T00:53:47;17.10;66.20
69628;DHT22;56850;51.984;5.088;2024-02-16T00:56:14;17.00;66.20
69628;DHT22;56850;51.984;5.088;2024-02-16T00:58:41;17.00;66.30
69628;DHT22;56850;51.984;5.088;2024-02-16T01:01:10;17.00;66.10
69628;DHT22;56850;51.984;5.088;2024-02-16T01:03:39;17.00;66.20
69628;DHT22;56850;51.984;5.088;2024-02-16T01:06:06;17.00;66.30
69628;DHT22;56850;51.984;5.088;2024-02-16T01:08:36;17.00;66.10
69628;DHT22;56850;51.984;5.088;2024-02-16T01:11:03;17.00;66.20
69628;DHT22;56850;51.984;5.088;2024-02-16T01:13:30;17.00;66.20
69628;DHT22;56850;51.984;5.088;2024-02-16T01:15:57;17.00;66.30
69628;DHT22;56850;51.984;5.088;2024-02-16T01:18:24;17.00;66.20
69628;DHT22;56850;51.984;5.088;2024-02-16T01:20:52;17.00;66.20
69628;DHT22;56850;51.984;5.088;2024-02-16T01:23:19;17.00;66.30
69628;DHT22;56850;51.984;5.088;2024-02-16T01:25:46;17.00;66.10
69628;DHT22;56850;51.984;5.088;2024-02-16T01:28:13;17.00;66.10
69628;DHT22;56850;51.984;5.088;2024-02-16T01:30:43;16.90;66.20
69628;DHT22;56850;51.984;5.088;2024-02-16T01:33:10;16.90;66.30
69628;DHT22;56850;51.984;5.088;2024-02-16T01:35:39;16.90;66.20
69628;DHT22;56850;51.984;5.088;2024-02-16T01:38:06;16.90;66.30
69628;DHT22;56850;51.984;5.088;2024-02-16T01:40:33;16.90;66.30
69628;DHT22;56850;51.984;5.088;2024-02-16T01:43:00;16.90;66.40
69628;DHT22;56850;51.984;5.088;2024-02-16T01:45:27;16.90;66.20
69628;DHT22;56850;51.984;5.088;2024-02-16T01:47:55;16.90;66.30
69628;DHT22;56850;51.984;5.088;2024-02-16T01:50:22;16.90;66.30
69628;DHT22;56850;51.984;5.088;2024-02-16T01:52:50;16.90;66.30
69628;DHT22;56850;51.984;5.088;2024-02-16T01:55:17;16.90;66.30
69628;DHT22;56850;51.984;5.088;2024-02-16T01:57:45;16.90;66.30
69628;DHT22;56850;51.984;5.088;2024-02-16T02:00:14;16.90;66.40
69628;DHT22;56850;51.984;5.088;2024-02-16T02:02:45;16.90;66.40
69628;DHT22;56850;51.984;5.088;2024-02-16T02:05:13;16.90;66.30
69628;DHT22;56850;51.984;5.088;2024-02-16T02:07:42;16.80;66.30
69628;DHT22;56850;51.984;5.088;2024-02-16T02:10:10;16.80;66.30
69628;DHT22;56850;51.984;5.088;2024-02-16T02:12:41;16.80;66.40
69628;DHT22;56850;51.984;5.088;2024-02-16T02:15:09;16.80;66.40
69628;DHT22;56850;51.984;5.088;2024-02-16T02:17:37;16.80;66.40
69628;DHT22;56850;51.984;5.088;2024-02-16T02:20:06;16.80;66.40
69628;DHT22;56850;51.984;5.088;2024-02-16T02:22:38;16.80;66.40
69628;DHT22;56850;51.984;5.088;2024-02-16T02:25:05;16.80;66.40
69628;DHT22;56850;51.984;5.088;2024-02-16T02:27:32;16.80;66.40
69628;DHT22;56850;51.984;5.088;2024-02-16T02:29:59;16.80;66.40
69628;DHT22;56850;51.984;5.088;2024-02-16T02:32:26;16.80;66.30
69628;DHT22;56850;51.984;5.088;2024-02-16T02:34:55;16.80;66.30
69628;DHT22;56850;51.984;5.088;2024-02-16T02:37:22;16.80;66.40
69628;DHT22;56850;51.984;5.088;2024-02-16T02:39:49;16.80;66.30
69628;DHT22;56850;51.984;5.088;2024-02-16T02:42:16;16.80;66.30
69628;DHT22;56850;51.984;5.088;2024-02-16T02:44:43;16.80;66.30
69628;DHT22;56850;51.984;5.088;2024-02-16T02:47:17;16.70;66.30
69628;DHT22;56850;51.984;5.088;2024-02-16T02:49:44;16.70;66.30
69628;DHT22;56850;51.984;5.088;2024-02-16T02:52:14;16.70;66.40
69628;DHT22;56850;51.984;5.088;2024-02-16T02:54:41;16.70;66.30
69628;DHT22;56850;51.984;5.088;2024-02-16T02:57:08;16.70;66.30
69628;DHT22;56850;51.984;5.088;2024-02-16T02:59:35;16.70;66.30
69628;DHT22;56850;51.984;5.088;2024-02-16T03:02:02;16.70;66.40
69628;DHT22;56850;51.984;5.088;2024-02-16T03:04:29;16.70;66.40
69628;DHT22;56850;51.984;5.088;2024-02-16T03:06:56;16.70;66.40
69628;DHT22;56850;51.984;5.088;2024-02-16T03:09:23;16.70;66.40
69628;DHT22;56850;51.984;5.088;2024-02-16T03:11:50;16.70;66.40
69628;DHT22;56850;51.984;5.088;2024-02-16T03:14:17;16.70;66.40
69628;DHT22;56850;51.984;5.088;2024-02-16T03:16:44;16.70;66.50
69628;DHT22;56850;51.984;5.088;2024-02-16T03:19:13;16.70;66.40
69628;DHT22;56850;51.984;5.088;2024-02-16T03:21:40;16.70;66.50
69628;DHT22;56850;51.984;5.088;2024-02-16T03:24:07;16.70;66.50
69628;DHT22;56850;51.984;5.088;2024-02-16T03:26:34;16.70;66.50
69628;DHT22;56850;51.984;5.088;2024-02-16T03:29:01;16.60;66.60
69628;DHT22;56850;51.984;5.088;2024-02-16T03:31:28;16.60;66.40
69628;DHT22;56850;51.984;5.088;2024-02-16T03:33:55;16.60;66.50
69628;DHT22;56850;51.984;5.088;2024-02-16T03:36:23;16.60;66.50
69628;DHT22;56850;51.984;5.088;2024-02-16T03:38:50;16.60;66.50
69628;DHT22;56850;51.984;5.088;2024-02-16T03:41:21;16.60;66.50
69628;DHT22;56850;51.984;5.088;2024-02-16T03:43:49;16.60;66.50
69628;DHT22;56850;51.984;5.088;2024-02-16T03:46:16;16.60;66.50
69628;DHT22;56850;51.984;5.088;2024-02-16T03:48:43;16.60;66.60
69628;DHT22;56850;51.984;5.088;2024-02-16T03:51:14;16.60;66.50
69628;DHT22;56850;51.984;5.088;2024-02-16T03:53:45;16.60;66.50
69628;DHT22;56850;51.984;5.088;2024-02-16T03:56:18;16.60;66.50
69628;DHT22;56850;51.984;5.088;2024-02-16T03:58:45;16.50;66.40
69628;DHT22;56850;51.984;5.088;2024-02-16T04:01:12;16.50;66.40
69628;DHT22;56850;51.984;5.088;2024-02-16T04:03:40;16.50;66.50
69628;DHT22;56850;51.984;5.088;2024-02-16T04:06:07;16.50;66.40
69628;DHT22;56850;51.984;5.088;2024-02-16T04:08:34;16.50;66.40
69628;DHT22;56850;51.984;5.088;2024-02-16T04:11:02;16.50;66.40
69628;DHT22;56850;51.984;5.088;2024-02-16T04:13:29;16.50;66.40
69628;DHT22;56850;51.984;5.088;2024-02-16T04:15:56;16.50;66.40
69628;DHT22;56850;51.984;5.088;2024-02-16T04:18:23;16.50;66.50
69628;DHT22;56850;51.984;5.088;2024-02-16T04:20:51;16.50;66.40
69628;DHT22;56850;51.984;5.088;2024-02-16T04:23:18;16.50;66.40
69628;DHT22;56850;51.984;5.088;2024-02-16T04:25:45;16.50;66.40
69628;DHT22;56850;51.984;5.088;2024-02-16T04:28:11;16.50;66.30
69628;DHT22;56850;51.984;5.088;2024-02-16T04:30:40;16.50;66.30
69628;DHT22;56850;51.984;5.088;2024-02-16T04:33:07;16.50;66.40
69628;DHT22;56850;51.984;5.088;2024-02-16T04:35:34;16.50;66.30
69628;DHT22;56850;51.984;5.088;2024-02-16T04:38:00;16.50;66.30
69628;DHT22;56850;51.984;5.088;2024-02-16T04:40:27;16.50;66.30
69628;DHT22;56850;51.984;5.088;2024-02-16T04:42:54;16.40;66.30
69628;DHT22;56850;51.984;5.088;2024-02-16T04:45:21;16.50;66.30
69628;DHT22;56850;51.984;5.088;2024-02-16T04:47:48;16.40;66.30
69628;DHT22;56850;51.984;5.088;2024-02-16T04:50:16;16.40;66.30
69628;DHT22;56850;51.984;5.088;2024-02-16T04:52:42;16.40;66.30
69628;DHT22;56850;51.984;5.088;2024-02-16T04:55:10;16.40;66.40
69628;DHT22;56850;51.984;5.088;2024-02-16T04:57:37;16.40;66.30
69628;DHT22;56850;51.984;5.088;2024-02-16T05:00:05;16.40;66.50
69628;DHT22;56850;51.984;5.088;2024-02-16T05:02:32;16.40;66.40
69628;DHT22;56850;51.984;5.088;2024-02-16T05:04:59;16.40;66.40
69628;DHT22;56850;51.984;5.088;2024-02-16T05:07:30;16.40;66.40
69628;DHT22;56850;51.984;5.088;2024-02-16T05:09:58;16.40;66.30
69628;DHT22;56850;51.984;5.088;2024-02-16T05:12:25;16.40;66.50
69628;DHT22;56850;51.984;5.088;2024-02-16T05:14:53;16.40;66.40
69628;DHT22;56850;51.984;5.088;2024-02-16T05:17:21;16.40;66.40
69628;DHT22;56850;51.984;5.088;2024-02-16T05:19:49;16.40;66.30
69628;DHT22;56850;51.984;5.088;2024-02-16T05:22:16;16.30;66.40
69628;DHT22;56850;51.984;5.088;2024-02-16T05:24:46;16.30;66.40
69628;DHT22;56850;51.984;5.088;2024-02-16T05:27:13;16.30;66.40
69628;DHT22;56850;51.984;5.088;2024-02-16T05:29:41;16.30;66.40
69628;DHT22;56850;51.984;5.088;2024-02-16T05:32:08;16.30;66.40
69628;DHT22;56850;51.984;5.088;2024-02-16T05:34:35;16.30;66.40
69628;DHT22;56850;51.984;5.088;2024-02-16T05:37:06;16.30;66.30
69628;DHT22;56850;51.984;5.088;2024-02-16T05:39:35;16.30;66.40
69628;DHT22;56850;51.984;5.088;2024-02-16T05:42:10;16.30;66.40
69628;DHT22;56850;51.984;5.088;2024-02-16T05:44:37;16.30;66.40
69628;DHT22;56850;51.984;5.088;2024-02-16T05:47:04;16.30;66.40
69628;DHT22;56850;51.984;5.088;2024-02-16T05:49:31;16.30;66.40
69628;DHT22;56850;51.984;5.088;2024-02-16T05:51:58;16.30;66.40
69628;DHT22;56850;51.984;5.088;2024-02-16T05:54:47;16.30;66.30
69628;DHT22;56850;51.984;5.088;2024-02-16T05:57:15;16.30;66.30
69628;DHT22;56850;51.984;5.088;2024-02-16T05:59:43;16.30;66.30
69628;DHT22;56850;51.984;5.088;2024-02-16T06:02:10;16.20;66.30
69628;DHT22;56850;51.984;5.088;2024-02-16T06:04:39;16.20;66.30
69628;DHT22;56850;51.984;5.088;2024-02-16T06:07:06;16.20;66.10
69628;DHT22;56850;51.984;5.088;2024-02-16T06:09:34;16.20;66.10
69628;DHT22;56850;51.984;5.088;2024-02-16T06:12:06;16.20;66.10
69628;DHT22;56850;51.984;5.088;2024-02-16T06:14:34;16.20;66.10
69628;DHT22;56850;51.984;5.088;2024-02-16T06:17:01;16.20;66.00
69628;DHT22;56850;51.984;5.088;2024-02-16T06:19:28;16.20;65.90
69628;DHT22;56850;51.984;5.088;2024-02-16T06:21:56;16.20;65.90
69628;DHT22;56850;51.984;5.088;2024-02-16T06:24:23;16.20;66.00
69628;DHT22;56850;51.984;5.088;2024-02-16T06:26:50;16.20;66.10
69628;DHT22;56850;51.984;5.088;2024-02-16T06:29:23;16.20;66.10
69628;DHT22;56850;51.984;5.088;2024-02-16T06:31:50;16.20;66.10
69628;DHT22;56850;51.984;5.088;2024-02-16T06:34:18;16.20;65.90
69628;DHT22;56850;51.984;5.088;2024-02-16T06:36:45;16.20;66.00
69628;DHT22;56850;51.984;5.088;2024-02-16T06:39:12;16.20;66.10
69628;DHT22;56850;51.984;5.088;2024-02-16T06:41:47;16.20;66.10
69628;DHT22;56850;51.984;5.088;2024-02-16T06:44:15;16.20;66.20
69628;DHT22;56850;51.984;5.088;2024-02-16T06:46:43;16.20;66.10
69628;DHT22;56850;51.984;5.088;2024-02-16T06:49:10;16.20;66.20
69628;DHT22;56850;51.984;5.088;2024-02-16T06:51:37;16.20;66.20
69628;DHT22;56850;51.984;5.088;2024-02-16T06:54:04;16.20;66.30
69628;DHT22;56850;51.984;5.088;2024-02-16T06:56:31;16.20;66.20
69628;DHT22;56850;51.984;5.088;2024-02-16T06:58:59;16.20;66.30
69628;DHT22;56850;51.984;5.088;2024-02-16T07:01:26;16.20;66.20
69628;DHT22;56850;51.984;5.088;2024-02-16T07:03:54;16.20;66.20
69628;DHT22;56850;51.984;5.088;2024-02-16T07:06:22;16.20;66.20
69628;DHT22;56850;51.984;5.088;2024-02-16T07:08:49;16.20;66.20
69628;DHT22;56850;51.984;5.088;2024-02-16T07:11:17;16.20;66.30
69628;DHT22;56850;51.984;5.088;2024-02-16T07:13:45;16.20;66.40
69628;DHT22;56850;51.984;5.088;2024-02-16T07:16:13;16.20;66.30
69628;DHT22;56850;51.984;5.088;2024-02-16T07:18:40;16.20;66.30
69628;DHT22;56850;51.984;5.088;2024-02-16T07:21:09;16.20;66.30
69628;DHT22;56850;51.984;5.088;2024-02-16T07:23:36;16.20;66.40
69628;DHT22;56850;51.984;5.088;2024-02-16T07:26:04;16.20;66.40
69628;DHT22;56850;51.984;5.088;2024-02-16T07:28:33;16.20;66.30
69628;DHT22;56850;51.984;5.088;2024-02-16T07:31:00;16.20;66.40
69628;DHT22;56850;51.984;5.088;2024-02-16T07:33:27;16.20;66.40
69628;DHT22;56850;51.984;5.088;2024-02-16T07:35:55;16.20;66.40
69628;DHT22;56850;51.984;5.088;2024-02-16T07:38:23;16.20;66.40
69628;DHT22;56850;51.984;5.088;2024-02-16T07:40:50;16.20;66.30
69628;DHT22;56850;51.984;5.088;2024-02-16T07:43:19;16.20;66.30
69628;DHT22;56850;51.984;5.088;2024-02-16T07:45:48;16.20;66.30
69628;DHT22;56850;51.984;5.088;2024-02-16T07:48:16;16.20;66.40
69628;DHT22;56850;51.984;5.088;2024-02-16T07:50:44;16.20;66.40
69628;DHT22;56850;51.984;5.088;2024-02-16T07:53:11;16.20;66.30
69628;DHT22;56850;51.984;5.088;2024-02-16T07:55:38;16.20;66.40
69628;DHT22;56850;51.984;5.088;2024-02-16T07:58:05;16.20;66.40
69628;DHT22;56850;51.984;5.088;2024-02-16T08:00:32;16.20;66.40
69628;DHT22;56850;51.984;5.088;2024-02-16T08:02:59;16.20;66.30
69628;DHT22;56850;51.984;5.088;2024-02-16T08:05:27;16.20;66.30
69628;DHT22;56850;51.984;5.088;2024-02-16T08:07:54;16.20;66.30
69628;DHT22;56850;51.984;5.088;2024-02-16T08:10:24;16.20;66.40
69628;DHT22;56850;51.984;5.088;2024-02-16T08:12:52;16.20;66.30
69628;DHT22;56850;51.984;5.088;2024-02-16T08:15:19;16.20;66.30
69628;DHT22;56850;51.984;5.088;2024-02-16T08:17:53;16.20;66.20
69628;DHT22;56850;51.984;5.088;2024-02-16T08:20:21;16.20;66.20
69628;DHT22;56850;51.984;5.088;2024-02-16T08:22:48;16.20;66.30
69628;DHT22;56850;51.984;5.088;2024-02-16T08:25:15;16.20;66.30
69628;DHT22;56850;51.984;5.088;2024-02-16T08:27:42;16.20;66.20
69628;DHT22;56850;51.984;5.088;2024-02-16T08:30:10;16.20;66.30
69628;DHT22;56850;51.984;5.088;2024-02-16T08:32:38;16.20;66.40
69628;DHT22;56850;51.984;5.088;2024-02-16T08:35:06;16.20;66.40
69628;DHT22;56850;51.984;5.088;2024-02-16T08:37:33;16.30;66.40
69628;DHT22;56850;51.984;5.088;2024-02-16T08:40:03;16.30;66.40
69628;DHT22;56850;51.984;5.088;2024-02-16T08:42:31;16.30;66.50
69628;DHT22;56850;51.984;5.088;2024-02-16T08:44:58;16.30;66.50
69628;DHT22;56850;51.984;5.088;2024-02-16T08:47:27;16.30;66.60
69628;DHT22;56850;51.984;5.088;2024-02-16T08:49:54;16.30;66.70
69628;DHT22;56850;51.984;5.088;2024-02-16T08:52:21;16.30;66.70
69628;DHT22;56850;51.984;5.088;2024-02-16T08:54:49;16.30;66.70
69628;DHT22;56850;51.984;5.088;2024-02-16T08:57:16;16.30;66.70
69628;DHT22;56850;51.984;5.088;2024-02-16T08:59:43;16.30;66.70
69628;DHT22;56850;51.984;5.088;2024-02-16T09:02:11;16.30;66.80
69628;DHT22;56850;51.984;5.088;2024-02-16T09:04:37;16.30;66.90
69628;DHT22;56850;51.984;5.088;2024-02-16T09:07:04;16.30;66.90
69628;DHT22;56850;51.984;5.088;2024-02-16T09:09:31;16.30;66.90
69628;DHT22;56850;51.984;5.088;2024-02-16T09:11:58;16.30;67.00
69628;DHT22;56850;51.984;5.088;2024-02-16T09:14:25;16.40;67.10
69628;DHT22;56850;51.984;5.088;2024-02-16T09:16:52;16.40;67.30
69628;DHT22;56850;51.984;5.088;2024-02-16T09:19:19;16.40;67.30
69628;DHT22;56850;51.984;5.088;2024-02-16T09:21:48;16.40;67.20
69628;DHT22;56850;51.984;5.088;2024-02-16T09:24:16;16.40;67.30
69628;DHT22;56850;51.984;5.088;2024-02-16T09:26:45;16.40;67.20
69628;DHT22;56850;51.984;5.088;2024-02-16T09:29:15;16.40;67.30
69628;DHT22;56850;51.984;5.088;2024-02-16T09:31:42;16.40;67.30
69628;DHT22;56850;51.984;5.088;2024-02-16T09:34:09;16.40;67.50
69628;DHT22;56850;51.984;5.088;2024-02-16T09:36:36;16.40;67.60
69628;DHT22;56850;51.984;5.088;2024-02-16T09:39:04;16.40;67.50
69628;DHT22;56850;51.984;5.088;2024-02-16T09:41:34;16.40;67.50
69628;DHT22;56850;51.984;5.088;2024-02-16T09:44:03;16.50;67.40
69628;DHT22;56850;51.984;5.088;2024-02-16T09:46:30;16.50;67.40
69628;DHT22;56850;51.984;5.088;2024-02-16T09:49:04;16.50;67.40
69628;DHT22;56850;51.984;5.088;2024-02-16T09:51:36;16.50;67.50
69628;DHT22;56850;51.984;5.088;2024-02-16T09:54:04;16.50;67.50
69628;DHT22;56850;51.984;5.088;2024-02-16T09:56:31;16.50;67.40
69628;DHT22;56850;51.984;5.088;2024-02-16T09:58:58;16.50;67.30
69628;DHT22;56850;51.984;5.088;2024-02-16T10:01:28;16.50;67.50
69628;DHT22;56850;51.984;5.088;2024-02-16T10:04:06;16.50;67.50
69628;DHT22;56850;51.984;5.088;2024-02-16T10:06:46;16.50;67.50
69628;DHT22;56850;51.984;5.088;2024-02-16T10:09:25;16.50;67.60
69628;DHT22;56850;51.984;5.088;2024-02-16T10:11:52;16.50;67.70
69628;DHT22;56850;51.984;5.088;2024-02-16T10:14:19;16.50;67.70
69628;DHT22;56850;51.984;5.088;2024-02-16T10:16:47;16.50;67.80
69628;DHT22;56850;51.984;5.088;2024-02-16T10:19:17;16.50;67.70
69628;DHT22;56850;51.984;5.088;2024-02-16T10:21:45;16.50;67.80
69628;DHT22;56850;51.984;5.088;2024-02-16T10:24:12;16.60;67.80
69628;DHT22;56850;51.984;5.088;2024-02-16T10:26:41;16.60;67.70
69628;DHT22;56850;51.984;5.088;2024-02-16T10:29:11;16.60;67.60
69628;DHT22;56850;51.984;5.088;2024-02-16T10:31:40;16.60;67.70
69628;DHT22;56850;51.984;5.088;2024-02-16T10:34:07;16.60;67.70
69628;DHT22;56850;51.984;5.088;2024-02-16T10:36:37;16.60;67.80
69628;DHT22;56850;51.984;5.088;2024-02-16T10:39:06;16.60;67.70
69628;DHT22;56850;51.984;5.088;2024-02-16T10:41:36;16.60;67.70
69628;DHT22;56850;51.984;5.088;2024-02-16T10:44:04;16.60;67.90
69628;DHT22;56850;51.984;5.088;2024-02-16T10:46:31;16.60;68.10
69628;DHT22;56850;51.984;5.088;2024-02-16T10:48:59;16.60;68.10
69628;DHT22;56850;51.984;5.088;2024-02-16T10:51:39;16.60;68.10
69628;DHT22;56850;51.984;5.088;2024-02-16T10:54:08;16.60;68.20
69628;DHT22;56850;51.984;5.088;2024-02-16T10:56:37;16.60;68.20
69628;DHT22;56850;51.984;5.088;2024-02-16T10:59:07;16.60;68.10
69628;DHT22;56850;51.984;5.088;2024-02-16T11:01:42;16.60;68.10
69628;DHT22;56850;51.984;5.088;2024-02-16T11:04:15;16.60;68.10
69628;DHT22;56850;51.984;5.088;2024-02-16T11:06:53;16.60;68.10
69628;DHT22;56850;51.984;5.088;2024-02-16T11:09:28;16.60;68.00
69628;DHT22;56850;51.984;5.088;2024-02-16T11:12:01;16.60;68.10
69628;DHT22;56850;51.984;5.088;2024-02-16T11:14:39;16.60;68.20
69628;DHT22;56850;51.984;5.088;2024-02-16T11:17:10;16.60;68.10
69628;DHT22;56850;51.984;5.088;2024-02-16T11:19:43;16.60;68.10
69628;DHT22;56850;51.984;5.088;2024-02-16T11:22:14;16.60;68.20
69628;DHT22;56850;51.984;5.088;2024-02-16T11:24:47;16.60;68.10
69628;DHT22;56850;51.984;5.088;2024-02-16T11:27:16;16.60;68.00
69628;DHT22;56850;51.984;5.088;2024-02-16T11:29:47;16.60;68.10
69628;DHT22;56850;51.984;5.088;2024-02-16T11:32:15;16.60;68.00
69628;DHT22;56850;51.984;5.088;2024-02-16T11:34:42;16.60;68.00
69628;DHT22;56850;51.984;5.088;2024-02-16T11:37:09;16.70;67.90
69628;DHT22;56850;51.984;5.088;2024-02-16T11:39:39;16.60;68.00
69628;DHT22;56850;51.984;5.088;2024-02-16T11:42:08;16.60;68.00
69628;DHT22;56850;51.984;5.088;2024-02-16T11:44:38;16.70;68.00
69628;DHT22;56850;51.984;5.088;2024-02-16T11:47:09;16.60;68.00
69628;DHT22;56850;51.984;5.088;2024-02-16T11:49:41;16.70;68.00
69628;DHT22;56850;51.984;5.088;2024-02-16T11:52:08;16.60;68.00
69628;DHT22;56850;51.984;5.088;2024-02-16T11:54:35;16.60;68.10
69628;DHT22;56850;51.984;5.088;2024-02-16T11:57:04;16.60;68.10
69628;DHT22;56850;51.984;5.088;2024-02-16T11:59:31;16.70;68.10
69628;DHT22;56850;51.984;5.088;2024-02-16T12:01:59;16.70;68.10
69628;DHT22;56850;51.984;5.088;2024-02-16T12:04:30;16.70;68.00
69628;DHT22;56850;51.984;5.088;2024-02-16T12:06:59;16.70;68.00
69628;DHT22;56850;51.984;5.088;2024-02-16T12:09:31;16.70;68.00
69628;DHT22;56850;51.984;5.088;2024-02-16T12:12:02;16.60;68.00
69628;DHT22;56850;51.984;5.088;2024-02-16T12:14:29;16.60;67.90
69628;DHT22;56850;51.984;5.088;2024-02-16T12:16:57;16.70;67.90
69628;DHT22;56850;51.984;5.088;2024-02-16T12:19:25;16.70;67.90
69628;DHT22;56850;51.984;5.088;2024-02-16T12:21:56;16.70;68.00
69628;DHT22;56850;51.984;5.088;2024-02-16T12:24:24;16.60;68.00
69628;DHT22;56850;51.984;5.088;2024-02-16T12:26:52;16.70;68.00
69628;DHT22;56850;51.984;5.088;2024-02-16T12:29:20;16.70;67.90
69628;DHT22;56850;51.984;5.088;2024-02-16T12:31:47;16.70;67.80
69628;DHT22;56850;51.984;5.088;2024-02-16T12:34:16;16.70;67.80
69628;DHT22;56850;51.984;5.088;2024-02-16T12:36:47;16.70;67.70
69628;DHT22;56850;51.984;5.088;2024-02-16T12:39:17;16.70;67.70
69628;DHT22;56850;51.984;5.088;2024-02-16T12:41:47;16.80;67.60
69628;DHT22;56850;51.984;5.088;2024-02-16T12:44:16;16.80;67.60
69628;DHT22;56850;51.984;5.088;2024-02-16T12:46:43;16.80;67.50
69628;DHT22;56850;51.984;5.088;2024-02-16T12:49:10;16.80;67.50
69628;DHT22;56850;51.984;5.088;2024-02-16T12:51:38;16.80;67.50
69628;DHT22;56850;51.984;5.088;2024-02-16T12:54:05;16.80;67.50
69628;DHT22;56850;51.984;5.088;2024-02-16T12:56:32;16.80;67.60
69628;DHT22;56850;51.984;5.088;2024-02-16T12:58:59;16.80;67.50
69628;DHT22;56850;51.984;5.088;2024-02-16T13:01:28;16.80;67.40
69628;DHT22;56850;51.984;5.088;2024-02-16T13:03:56;16.80;67.40
69628;DHT22;56850;51.984;5.088;2024-02-16T13:06:23;16.80;67.40
69628;DHT22;56850;51.984;5.088;2024-02-16T13:08:55;16.80;67.40
69628;DHT22;56850;51.984;5.088;2024-02-16T13:11:22;16.80;67.30
69628;DHT22;56850;51.984;5.088;2024-02-16T13:13:50;16.90;67.30
69628;DHT22;56850;51.984;5.088;2024-02-16T13:16:18;16.90;67.30
69628;DHT22;56850;51.984;5.088;2024-02-16T13:18:45;16.90;67.30
69628;DHT22;56850;51.984;5.088;2024-02-16T13:21:13;16.90;67.30
69628;DHT22;56850;51.984;5.088;2024-02-16T13:23:41;16.90;67.30
69628;DHT22;56850;51.984;5.088;2024-02-16T13:26:08;16.90;67.30
69628;DHT22;56850;51.984;5.088;2024-02-16T13:28:35;16.90;67.20
69628;DHT22;56850;51.984;5.088;2024-02-16T13:31:03;16.90;67.30
69628;DHT22;56850;51.984;5.088;2024-02-16T13:33:30;16.90;67.20
69628;DHT22;56850;51.984;5.088;2024-02-16T13:35:58;16.90;67.20
69628;DHT22;56850;51.984;5.088;2024-02-16T13:38:25;16.90;67.20
69628;DHT22;56850;51.984;5.088;2024-02-16T13:40:53;16.90;67.20
69628;DHT22;56850;51.984;5.088;2024-02-16T13:43:21;16.90;67.20
69628;DHT22;56850;51.984;5.088;2024-02-16T13:45:51;16.90;67.10
69628;DHT22;56850;51.984;5.088;2024-02-16T13:48:22;17.00;67.10
69628;DHT22;56850;51.984;5.088;2024-02-16T13:50:50;17.00;67.10
69628;DHT22;56850;51.984;5.088;2024-02-16T13:53:18;17.00;67.00
69628;DHT22;56850;51.984;5.088;2024-02-16T13:55:48;17.00;67.00
69628;DHT22;56850;51.984;5.088;2024-02-16T13:58:16;17.00;67.00
69628;DHT22;56850;51.984;5.088;2024-02-16T14:00:43;17.00;67.10
69628;DHT22;56850;51.984;5.088;2024-02-16T14:03:14;17.00;67.00
69628;DHT22;56850;51.984;5.088;2024-02-16T14:05:45;17.00;67.00
69628;DHT22;56850;51.984;5.088;2024-02-16T14:08:13;17.00;67.00
69628;DHT22;56850;51.984;5.088;2024-02-16T14:10:42;17.00;66.90
69628;DHT22;56850;51.984;5.088;2024-02-16T14:13:10;17.00;66.90
69628;DHT22;56850;51.984;5.088;2024-02-16T14:15:37;17.00;66.90
69628;DHT22;56850;51.984;5.088;2024-02-16T14:18:06;17.00;66.90
69628;DHT22;56850;51.984;5.088;2024-02-16T14:20:43;17.00;66.80
69628;DHT22;56850;51.984;5.088;2024-02-16T14:23:15;17.00;66.80
69628;DHT22;56850;51.984;5.088;2024-02-16T14:25:42;17.00;66.80
69628;DHT22;56850;51.984;5.088;2024-02-16T14:28:10;17.00;66.80
69628;DHT22;56850;51.984;5.088;2024-02-16T14:30:38;17.00;66.70
69628;DHT22;56850;51.984;5.088;2024-02-16T14:33:07;17.10;66.80
69628;DHT22;56850;51.984;5.088;2024-02-16T14:35:35;17.10;66.70
69628;DHT22;56850;51.984;5.088;2024-02-16T14:38:05;17.10;66.80
69628;DHT22;56850;51.984;5.088;2024-02-16T14:40:33;17.10;66.70
69628;DHT22;56850;51.984;5.088;2024-02-16T14:43:02;17.10;66.80
69628;DHT22;56850;51.984;5.088;2024-02-16T14:45:29;17.10;66.70
69628;DHT22;56850;51.984;5.088;2024-02-16T14:47:57;17.10;66.70
69628;DHT22;56850;51.984;5.088;2024-02-16T14:50:25;17.10;66.70
69628;DHT22;56850;51.984;5.088;2024-02-16T14:52:53;17.10;66.70
69628;DHT22;56850;51.984;5.088;2024-02-16T14:55:21;17.10;66.70
69628;DHT22;56850;51.984;5.088;2024-02-16T14:57:49;17.10;66.70
69628;DHT22;56850;51.984;5.088;2024-02-16T15:00:17;17.10;66.60
69628;DHT22;56850;51.984;5.088;2024-02-16T15:02:45;17.10;66.70
69628;DHT22;56850;51.984;5.088;2024-02-16T15:05:15;17.10;66.60
69628;DHT22;56850;51.984;5.088;2024-02-16T15:07:43;17.10;66.60
69628;DHT22;56850;51.984;5.088;2024-02-16T15:10:13;17.10;66.60
69628;DHT22;56850;51.984;5.088;2024-02-16T15:12:41;17.10;66.60
69628;DHT22;56850;51.984;5.088;2024-02-16T15:15:10;17.10;66.50
69628;DHT22;56850;51.984;5.088;2024-02-16T15:17:40;17.10;66.60
69628;DHT22;56850;51.984;5.088;2024-02-16T15:20:09;17.10;66.50
69628;DHT22;56850;51.984;5.088;2024-02-16T15:22:37;17.10;66.60
69628;DHT22;56850;51.984;5.088;2024-02-16T15:25:17;17.10;66.50
69628;DHT22;56850;51.984;5.088;2024-02-16T15:27:45;17.10;66.60
69628;DHT22;56850;51.984;5.088;2024-02-16T15:30:13;17.10;66.50
69628;DHT22;56850;51.984;5.088;2024-02-16T15:32:40;17.10;66.60
69628;DHT22;56850;51.984;5.088;2024-02-16T15:35:07;17.10;66.70
69628;DHT22;56850;51.984;5.088;2024-02-16T15:37:35;17.10;66.70